Time;durP1;ratioP1;P1;durP2;ratioP2;P2;SDS_P1;SDS_P2;PMS_P1;PMS_P2;Temp;Humidity;BMP_temperature;BMP_pressure;BME280_temperature;BME280_humidity;BME280_pressure;Samples;Min_cycle;Max_cycle;Signal;HPM_P1;HPM_P2
2020/12/05 00:02:10;;;;;;;40.08;30.30;;;2.60;1.00;;;;;;5019709;28;20238;-75
2020/12/05 00:04:36;;;;;;;38.03;28.70;;;2.70;1.00;;;;;;5013168;28;20309;-75
2020/12/05 00:07:02;;;;;;;37.83;28.35;;;2.70;1.00;;;;;;5030438;28;20273;-75
2020/12/05 00:09:28;;;;;;;42.97;29.38;;;2.70;1.00;;;;;;5009413;28;20332;-74
2020/12/05 00:11:55;;;;;;;40.58;27.45;;;2.60;1.00;;;;;;5027190;28;20309;-75
2020/12/05 00:14:21;;;;;;;39.70;29.45;;;2.60;1.00;;;;;;5018363;28;20317;-75
2020/12/05 00:16:50;;;;;;;42.75;29.98;;;2.60;1.00;;;;;;5034855;28;20317;-74
2020/12/05 00:19:17;;;;;;;35.33;28.52;;;2.50;1.00;;;;;;5045048;28;20240;-73
2020/12/05 00:21:43;;;;;;;41.97;33.20;;;2.50;1.00;;;;;;5038121;28;20257;-74
2020/12/05 00:24:09;;;;;;;42.13;30.58;;;2.50;1.00;;;;;;5048324;28;20820;-74
2020/12/05 00:26:35;;;;;;;37.63;28.83;;;2.50;1.00;;;;;;5030169;28;20275;-74
2020/12/05 00:29:01;;;;;;;41.10;28.83;;;2.50;1.00;;;;;;5027722;28;20308;-75
2020/12/05 00:31:28;;;;;;;40.67;30.58;;;2.50;1.00;;;;;;5017859;28;20225;-74
2020/12/05 00:33:56;;;;;;;39.05;29.42;;;2.50;1.00;;;;;;5023318;28;20383;-76
2020/12/05 00:36:22;;;;;;;40.45;31.48;;;2.40;1.00;;;;;;5005588;28;20222;-75
2020/12/05 00:38:48;;;;;;;38.60;29.73;;;2.40;1.00;;;;;;5023539;28;20304;-74
2020/12/05 00:41:18;;;;;;;41.72;29.95;;;2.40;1.00;;;;;;5002252;28;20317;-74
2020/12/05 00:43:44;;;;;;;40.80;30.25;;;2.40;1.00;;;;;;5026808;28;20257;-74
2020/12/05 00:46:11;;;;;;;40.50;29.38;;;2.40;1.00;;;;;;5006814;28;20407;-73
2020/12/05 00:48:37;;;;;;;39.42;30.63;;;2.40;1.00;;;;;;5029164;28;21098;-74
2020/12/05 00:51:04;;;;;;;37.63;29.13;;;2.40;1.00;;;;;;5001311;28;20308;-74
2020/12/05 00:53:30;;;;;;;41.40;29.90;;;2.40;1.00;;;;;;5027811;28;20241;-73
2020/12/05 00:55:56;;;;;;;41.97;31.98;;;2.40;1.00;;;;;;5018623;28;20724;-74
2020/12/05 00:58:22;;;;;;;37.72;31.17;;;2.40;1.00;;;;;;5016851;28;20225;-74
2020/12/05 01:00:49;;;;;;;43.08;31.58;;;2.40;1.00;;;;;;5027827;28;20222;-73
2020/12/05 01:03:16;;;;;;;40.28;30.80;;;2.40;1.00;;;;;;4997220;28;20304;-75
2020/12/05 01:05:42;;;;;;;42.75;32.47;;;2.40;1.00;;;;;;5028097;28;20293;-74
2020/12/05 01:08:09;;;;;;;48.05;30.42;;;2.40;1.00;;;;;;5003932;28;20282;-75
2020/12/05 01:10:35;;;;;;;41.28;30.42;;;2.40;1.00;;;;;;5023780;28;20303;-75
2020/12/05 01:13:01;;;;;;;37.30;29.40;;;2.40;1.00;;;;;;5007017;28;20221;-74
2020/12/05 01:15:29;;;;;;;43.45;32.15;;;2.40;1.00;;;;;;5024713;28;20214;-74
2020/12/05 01:17:55;;;;;;;41.40;31.20;;;2.40;1.00;;;;;;5001879;28;20273;-75
2020/12/05 01:20:22;;;;;;;39.47;30.73;;;2.40;1.00;;;;;;5024994;28;20314;-74
2020/12/05 01:22:48;;;;;;;44.22;32.13;;;2.40;1.00;;;;;;5001181;28;20293;-75
2020/12/05 01:25:15;;;;;;;44.03;32.20;;;2.40;1.00;;;;;;5013875;28;20226;-75
2020/12/05 01:27:43;;;;;;;39.90;31.38;;;2.40;1.00;;;;;;5005007;28;20234;-74
2020/12/05 01:30:10;;;;;;;41.58;31.80;;;2.40;1.00;;;;;;5023707;28;21107;-74
2020/12/05 01:32:36;;;;;;;41.85;28.77;;;2.40;1.00;;;;;;5006493;28;20261;-74
2020/12/05 01:35:02;;;;;;;45.15;33.00;;;2.30;1.00;;;;;;5023102;28;20222;-73
2020/12/05 01:37:29;;;;;;;44.17;30.05;;;2.30;1.00;;;;;;5023683;28;20217;-75
2020/12/05 01:39:55;;;;;;;44.00;30.42;;;2.30;1.00;;;;;;5007792;28;20804;-74
2020/12/05 01:42:22;;;;;;;43.90;32.05;;;2.30;1.00;;;;;;5025483;28;20296;-74
2020/12/05 01:44:48;;;;;;;41.53;29.30;;;2.30;1.00;;;;;;5009111;28;20709;-73
2020/12/05 01:47:14;;;;;;;43.70;30.08;;;2.20;1.00;;;;;;5025435;28;20725;-75
2020/12/05 01:49:41;;;;;;;40.75;31.75;;;2.30;1.00;;;;;;5012993;28;20234;-74
2020/12/05 01:52:08;;;;;;;40.42;30.00;;;2.30;1.00;;;;;;5029122;28;20277;-74
2020/12/05 01:54:35;;;;;;;39.25;29.15;;;2.30;1.00;;;;;;5014397;28;20305;-74
2020/12/05 01:57:04;;;;;;;43.97;31.00;;;2.20;1.00;;;;;;5031994;28;20226;-74
2020/12/05 01:59:32;;;;;;;41.10;28.38;;;2.20;1.00;;;;;;5021522;28;20230;-74
2020/12/05 02:02:00;;;;;;;40.20;31.02;;;2.10;1.00;;;;;;5016789;28;20340;-74
2020/12/05 02:04:28;;;;;;;45.78;30.73;;;2.10;1.00;;;;;;5008955;28;21244;-75
2020/12/05 02:07:07;;;;;;;38.25;28.33;;;2.10;1.00;;;;;;5026187;28;20250;-73
2020/12/05 02:09:39;;;;;;;37.45;30.23;;;2.10;1.00;;;;;;5004690;28;20230;-74
2020/12/05 02:12:23;;;;;;;42.67;29.60;;;2.00;1.00;;;;;;5026782;28;20244;-75
2020/12/05 02:14:55;;;;;;;38.78;28.30;;;2.00;1.00;;;;;;5011953;28;20214;-74
2020/12/05 02:17:23;;;;;;;39.40;29.70;;;2.00;1.00;;;;;;5035828;28;20332;-74
2020/12/05 02:19:51;;;;;;;42.22;29.20;;;2.00;1.00;;;;;;5018002;28;20317;-74
2020/12/05 02:22:23;;;;;;;37.22;29.08;;;2.00;1.00;;;;;;5040415;28;20222;-74
2020/12/05 02:24:50;;;;;;;41.13;29.60;;;2.00;1.00;;;;;;5019823;28;20226;-74
2020/12/05 02:27:17;;;;;;;40.72;32.17;;;2.00;1.00;;;;;;5034016;28;20238;-74
2020/12/05 02:29:44;;;;;;;39.92;28.20;;;1.90;1.00;;;;;;5013932;28;20350;-74
2020/12/05 02:32:10;;;;;;;39.88;29.10;;;2.00;1.00;;;;;;5030000;28;20218;-74
2020/12/05 02:34:36;;;;;;;43.17;31.50;;;2.00;1.00;;;;;;5032252;28;20362;-75
2020/12/05 02:37:09;;;;;;;39.03;27.17;;;2.00;1.00;;;;;;5016973;28;21280;-74
2020/12/05 02:39:36;;;;;;;41.47;29.00;;;2.00;1.00;;;;;;5048371;28;20230;-74
2020/12/05 02:42:04;;;;;;;37.95;28.45;;;2.00;1.00;;;;;;5029925;28;20277;-74
2020/12/05 02:44:30;;;;;;;42.22;28.98;;;2.10;1.00;;;;;;5042091;28;20253;-75
2020/12/05 02:47:00;;;;;;;39.70;28.48;;;2.10;1.00;;;;;;5015023;28;20313;-75
2020/12/05 02:49:26;;;;;;;36.72;27.40;;;2.10;1.00;;;;;;5024734;28;21499;-74
2020/12/05 02:51:53;;;;;;;39.45;28.48;;;2.10;1.00;;;;;;5017414;28;20222;-74
2020/12/05 02:54:19;;;;;;;41.03;27.60;;;2.10;1.00;;;;;;5027681;28;20234;-75
2020/12/05 02:56:45;;;;;;;39.80;28.95;;;2.10;1.00;;;;;;5013486;28;20225;-75
2020/12/05 02:59:12;;;;;;;39.50;29.52;;;2.10;1.00;;;;;;5023385;28;20337;-75
2020/12/05 03:01:38;;;;;;;39.40;28.88;;;2.00;1.00;;;;;;5027226;28;20226;-73
2020/12/05 03:04:04;;;;;;;38.25;29.85;;;2.00;1.00;;;;;;5028100;28;20305;-75
2020/12/05 03:06:30;;;;;;;38.67;30.05;;;2.00;1.00;;;;;;5030098;28;20709;-75
2020/12/05 03:08:56;;;;;;;38.28;28.33;;;2.00;1.00;;;;;;5034809;28;21153;-74
2020/12/05 03:11:23;;;;;;;39.05;28.58;;;1.90;1.00;;;;;;5015641;28;20226;-75
2020/12/05 03:13:49;;;;;;;39.20;29.45;;;1.90;1.00;;;;;;5043244;28;20230;-74
2020/12/05 03:16:16;;;;;;;40.08;28.73;;;1.90;1.00;;;;;;5046623;28;20281;-74
2020/12/05 03:18:42;;;;;;;38.92;27.65;;;1.90;1.00;;;;;;5049540;28;20245;-74
2020/12/05 03:21:08;;;;;;;35.65;27.38;;;1.90;1.00;;;;;;5050055;28;20854;-73
2020/12/05 03:23:34;;;;;;;39.72;30.40;;;1.80;1.00;;;;;;5049491;28;21045;-73
2020/12/05 03:26:00;;;;;;;39.00;28.83;;;1.80;1.00;;;;;;5024579;28;20819;-74
2020/12/05 03:28:26;;;;;;;40.13;27.60;;;1.80;1.00;;;;;;5027948;28;20225;-74
2020/12/05 03:30:53;;;;;;;35.28;28.13;;;1.80;1.00;;;;;;5026890;28;20234;-73
2020/12/05 03:33:21;;;;;;;36.47;28.02;;;1.80;1.00;;;;;;5026549;28;20223;-74
2020/12/05 03:35:47;;;;;;;35.40;27.25;;;1.80;1.00;;;;;;5029533;28;21013;-74
2020/12/05 03:38:13;;;;;;;35.08;27.50;;;1.80;1.00;;;;;;5032862;28;20674;-74
2020/12/05 03:40:40;;;;;;;34.75;27.60;;;1.80;1.00;;;;;;5029157;28;20226;-74
2020/12/05 03:43:06;;;;;;;35.50;27.52;;;1.80;1.00;;;;;;5030023;28;20781;-73
2020/12/05 03:45:32;;;;;;;35.20;26.90;;;1.80;1.00;;;;;;5030899;28;20217;-73
2020/12/05 03:47:58;;;;;;;35.25;26.83;;;1.90;1.00;;;;;;5034723;28;20273;-74
2020/12/05 03:50:25;;;;;;;35.92;27.35;;;1.90;1.00;;;;;;5026729;28;20714;-73
2020/12/05 03:52:51;;;;;;;36.97;26.63;;;1.90;1.00;;;;;;5032265;28;20622;-74
2020/12/05 03:55:17;;;;;;;37.15;27.00;;;1.90;1.00;;;;;;5029423;28;20313;-74
2020/12/05 03:57:44;;;;;;;36.55;25.85;;;1.90;1.00;;;;;;5029526;28;20754;-74
2020/12/05 04:00:10;;;;;;;34.42;26.55;;;2.00;1.00;;;;;;5025585;28;20730;-74
2020/12/05 04:02:36;;;;;;;36.20;26.55;;;2.00;1.00;;;;;;5026001;28;20303;-74
2020/12/05 04:05:03;;;;;;;35.92;26.83;;;2.00;1.00;;;;;;5035970;28;20222;-74
2020/12/05 04:07:30;;;;;;;38.58;27.40;;;2.10;1.00;;;;;;5025177;28;20313;-73
2020/12/05 04:09:56;;;;;;;35.08;25.98;;;2.10;1.00;;;;;;5028565;28;20230;-74
2020/12/05 04:12:22;;;;;;;37.88;28.35;;;2.10;1.00;;;;;;5022481;28;20225;-74
2020/12/05 04:14:48;;;;;;;29.40;24.33;;;2.10;1.00;;;;;;5030216;28;20317;-74
2020/12/05 04:17:14;;;;;;;36.50;27.55;;;2.10;1.00;;;;;;5027821;28;20210;-74
2020/12/05 04:19:40;;;;;;;36.53;26.80;;;2.10;1.00;;;;;;5030903;28;20230;-74
2020/12/05 04:22:07;;;;;;;34.40;24.92;;;2.00;1.00;;;;;;5023961;28;20222;-74
2020/12/05 04:24:33;;;;;;;37.60;28.73;;;2.00;1.00;;;;;;5026137;28;20227;-74
2020/12/05 04:27:00;;;;;;;33.60;25.13;;;2.00;1.00;;;;;;5027620;28;20238;-74
2020/12/05 04:29:26;;;;;;;33.35;26.67;;;2.00;1.00;;;;;;5024711;28;20741;-74
2020/12/05 04:31:52;;;;;;;33.33;25.38;;;2.00;1.00;;;;;;5009896;28;20226;-74
2020/12/05 04:34:18;;;;;;;35.28;26.55;;;2.10;1.00;;;;;;5023237;28;20717;-74
2020/12/05 04:36:44;;;;;;;35.15;26.45;;;2.10;1.00;;;;;;5027260;28;20253;-74
2020/12/05 04:39:11;;;;;;;33.65;26.40;;;2.10;1.00;;;;;;5026989;28;20234;-74
2020/12/05 04:41:38;;;;;;;32.67;26.70;;;2.10;1.00;;;;;;5028934;28;20317;-74
2020/12/05 04:44:04;;;;;;;34.17;25.15;;;2.10;1.00;;;;;;5028106;28;20764;-74
2020/12/05 04:46:33;;;;;;;33.15;24.55;;;2.10;1.00;;;;;;5028317;28;20226;-74
2020/12/05 04:49:00;;;;;;;30.20;24.02;;;2.10;1.00;;;;;;5030092;28;20242;-74
2020/12/05 04:51:30;;;;;;;32.67;25.45;;;2.20;1.00;;;;;;5038389;28;20270;-74
2020/12/05 04:53:59;;;;;;;33.17;24.58;;;2.20;1.00;;;;;;5046615;28;20254;-74
2020/12/05 04:56:35;;;;;;;30.70;24.35;;;2.20;1.00;;;;;;5049531;28;20218;-74
2020/12/05 04:59:03;;;;;;;32.75;22.85;;;2.30;1.00;;;;;;5045715;28;20230;-74
2020/12/05 05:01:34;;;;;;;31.10;24.98;;;2.30;1.00;;;;;;5040766;28;20222;-74
2020/12/05 05:04:02;;;;;;;32.58;25.38;;;2.30;1.00;;;;;;5045729;28;20281;-74
2020/12/05 05:06:28;;;;;;;27.08;22.38;;;2.30;1.00;;;;;;5042970;28;20222;-75
2020/12/05 05:08:54;;;;;;;32.95;24.25;;;2.20;1.00;;;;;;5037504;28;20261;-74
2020/12/05 05:11:20;;;;;;;31.95;24.92;;;2.20;1.00;;;;;;5041381;28;20455;-74
2020/12/05 05:13:52;;;;;;;28.92;23.42;;;2.20;1.00;;;;;;5040207;28;20217;-75
2020/12/05 05:16:19;;;;;;;31.05;24.17;;;2.20;1.00;;;;;;5038672;28;20226;-74
2020/12/05 05:18:45;;;;;;;32.03;23.55;;;2.20;1.00;;;;;;5025440;28;20214;-74
2020/12/05 05:21:34;;;;;;;29.60;23.50;;;2.20;1.00;;;;;;5046259;28;20284;-75
2020/12/05 05:24:02;;;;;;;32.28;24.45;;;2.30;1.00;;;;;;5032177;28;20230;-74
2020/12/05 05:26:32;;;;;;;28.85;23.10;;;2.30;1.00;;;;;;5027505;28;20242;-74
2020/12/05 05:28:58;;;;;;;29.98;22.75;;;2.30;1.00;;;;;;5027309;28;20321;-74
2020/12/05 05:31:30;;;;;;;30.67;24.08;;;2.20;1.00;;;;;;5026287;28;20333;-73
2020/12/05 05:33:56;;;;;;;29.58;23.60;;;2.20;1.00;;;;;;5030295;28;20262;-74
2020/12/05 05:36:24;;;;;;;26.90;22.23;;;2.20;1.00;;;;;;5021891;28;20308;-74
2020/12/05 05:39:02;;;;;;;34.05;25.02;;;2.20;1.00;;;;;;5025040;28;20301;-74
2020/12/05 05:41:28;;;;;;;31.80;23.42;;;2.20;1.00;;;;;;5022306;28;20221;-74
2020/12/05 05:43:57;;;;;;;33.95;23.85;;;2.20;1.00;;;;;;5023458;28;20233;-74
2020/12/05 05:46:27;;;;;;;31.52;23.70;;;2.10;1.00;;;;;;5031705;28;20230;-74
2020/12/05 05:48:53;;;;;;;32.92;23.77;;;2.00;1.00;;;;;;5031547;28;20242;-74
2020/12/05 05:51:35;;;;;;;32.42;24.30;;;2.00;1.00;;;;;;5029699;28;20252;-74
2020/12/05 05:54:21;;;;;;;35.35;24.52;;;2.00;1.00;;;;;;5032143;28;20230;-74
2020/12/05 05:56:58;;;;;;;33.88;24.60;;;2.00;1.00;;;;;;5034416;28;20223;-75
2020/12/05 05:59:26;;;;;;;34.22;23.30;;;1.90;1.00;;;;;;5039340;28;21028;-74
2020/12/05 06:01:54;;;;;;;33.35;26.38;;;1.90;1.00;;;;;;5033248;28;20309;-74
2020/12/05 06:04:26;;;;;;;29.83;24.88;;;1.90;1.00;;;;;;5029409;28;20313;-73
2020/12/05 06:06:52;;;;;;;28.85;22.60;;;1.90;1.00;;;;;;5028164;28;20217;-75
2020/12/05 06:09:24;;;;;;;30.98;24.77;;;1.80;1.00;;;;;;5023979;28;20264;-75
2020/12/05 06:11:53;;;;;;;32.33;24.17;;;1.90;1.00;;;;;;5028697;28;20226;-74
2020/12/05 06:14:21;;;;;;;31.27;24.05;;;1.90;1.00;;;;;;5027159;28;20892;-75
2020/12/05 06:16:49;;;;;;;30.10;23.90;;;1.90;1.00;;;;;;5026926;28;20222;-74
2020/12/05 06:19:16;;;;;;;32.47;22.95;;;1.90;1.00;;;;;;5025931;28;20605;-74
2020/12/05 06:21:47;;;;;;;30.38;23.90;;;1.80;1.00;;;;;;5031261;28;20234;-75
2020/12/05 06:24:14;;;;;;;32.42;26.48;;;1.90;1.00;;;;;;5028382;28;21151;-76
2020/12/05 06:26:42;;;;;;;33.10;24.08;;;1.90;1.00;;;;;;5009908;28;20321;-74
2020/12/05 06:29:09;;;;;;;31.38;24.42;;;1.90;1.00;;;;;;5030154;28;20238;-75
2020/12/05 06:31:42;;;;;;;33.08;25.20;;;1.90;1.00;;;;;;5009510;28;20243;-74
2020/12/05 06:34:09;;;;;;;29.58;22.23;;;1.90;1.00;;;;;;5029702;28;20751;-74
2020/12/05 06:36:40;;;;;;;31.33;24.20;;;1.90;1.00;;;;;;5026955;28;20330;-74
2020/12/05 06:39:18;;;;;;;32.05;23.58;;;1.80;1.00;;;;;;5032422;28;20313;-75
2020/12/05 06:41:46;;;;;;;32.78;23.77;;;1.80;1.00;;;;;;5020237;28;20300;-74
2020/12/05 06:44:15;;;;;;;28.95;22.83;;;1.80;1.00;;;;;;5027902;28;20230;-73
2020/12/05 06:46:55;;;;;;;30.48;23.98;;;1.80;1.00;;;;;;5032435;28;20218;-74
2020/12/05 06:49:44;;;;;;;30.25;24.10;;;1.80;1.00;;;;;;5030874;28;20240;-73
2020/12/05 06:52:40;;;;;;;31.13;24.35;;;1.70;1.00;;;;;;5028835;28;20236;-75
2020/12/05 06:55:15;;;;;;;30.80;22.98;;;1.70;1.00;;;;;;5028876;28;20643;-73
2020/12/05 06:57:43;;;;;;;34.28;24.50;;;1.70;1.00;;;;;;5023508;28;20249;-74
2020/12/05 07:00:34;;;;;;;30.17;24.27;;;1.80;1.00;;;;;;5033242;28;20770;-74
2020/12/05 07:03:02;;;;;;;30.33;24.52;;;1.90;1.00;;;;;;5027121;28;20264;-74
2020/12/05 07:05:49;;;;;;;26.73;22.77;;;1.90;1.00;;;;;;5022862;28;20253;-74
2020/12/05 07:08:28;;;;;;;32.78;23.98;;;2.00;1.00;;;;;;5026960;28;20233;-75
2020/12/05 07:10:57;;;;;;;33.22;25.58;;;2.00;1.00;;;;;;5025188;28;21124;-74
2020/12/05 07:13:25;;;;;;;34.72;26.30;;;2.00;1.00;;;;;;5030970;28;20253;-74
2020/12/05 07:15:52;;;;;;;30.27;23.20;;;2.00;1.00;;;;;;5028341;28;20349;-72
2020/12/05 07:18:24;;;;;;;34.45;25.73;;;2.10;1.00;;;;;;5030036;28;20222;-72
2020/12/05 07:20:51;;;;;;;28.98;23.95;;;2.10;1.00;;;;;;5022299;28;20218;-74
2020/12/05 07:23:17;;;;;;;26.75;21.52;;;2.20;1.00;;;;;;5029119;28;20233;-74
2020/12/05 07:25:44;;;;;;;29.85;22.27;;;2.30;1.00;;;;;;5022598;28;20305;-74
2020/12/05 07:28:11;;;;;;;26.13;21.30;;;2.40;1.00;;;;;;5031738;28;20243;-73
2020/12/05 07:30:38;;;;;;;24.90;20.23;;;2.40;1.00;;;;;;5032022;28;20236;-75
2020/12/05 07:33:08;;;;;;;29.55;21.58;;;2.40;1.00;;;;;;5029828;28;20222;-75
2020/12/05 07:35:38;;;;;;;30.30;22.77;;;2.50;1.00;;;;;;5036965;28;20281;-75
2020/12/05 07:38:15;;;;;;;28.25;22.25;;;2.60;1.00;;;;;;5041728;28;20222;-75
2020/12/05 07:40:41;;;;;;;25.08;21.75;;;2.60;1.00;;;;;;5043191;28;20230;-74
2020/12/05 07:43:19;;;;;;;26.58;21.20;;;2.70;1.00;;;;;;5030790;28;20258;-75
2020/12/05 07:45:48;;;;;;;25.60;21.73;;;2.70;1.00;;;;;;5034666;28;22482;-75
2020/12/05 07:48:16;;;;;;;27.65;21.98;;;2.80;1.00;;;;;;5031184;28;20309;-75
2020/12/05 07:50:42;;;;;;;25.67;20.17;;;2.80;1.00;;;;;;5026847;28;20234;-75
2020/12/05 07:53:33;;;;;;;28.13;24.10;;;2.90;1.00;;;;;;5010120;28;20230;-75
2020/12/05 07:56:12;;;;;;;27.67;22.15;;;2.90;1.00;;;;;;5029269;28;20325;-73
2020/12/05 07:58:48;;;;;;;26.25;20.92;;;3.00;1.00;;;;;;5033379;28;20229;-75
2020/12/05 08:01:29;;;;;;;24.92;21.25;;;3.00;1.00;;;;;;5028000;28;20230;-75
2020/12/05 08:04:26;;;;;;;26.40;21.75;;;3.10;1.00;;;;;;5023578;28;20226;-74
2020/12/05 08:06:58;;;;;;;29.75;26.25;;;3.10;1.00;;;;;;5031472;28;20253;-74
2020/12/05 08:09:33;;;;;;;27.83;23.10;;;3.20;1.00;;;;;;5035289;28;20238;-74
2020/12/05 08:12:01;;;;;;;24.50;20.88;;;3.30;1.00;;;;;;5029061;28;20221;-73
2020/12/05 08:14:31;;;;;;;24.23;21.45;;;3.30;1.00;;;;;;5031406;28;20231;-75
2020/12/05 08:17:01;;;;;;;28.55;21.55;;;3.30;1.00;;;;;;5035080;28;20227;-73
2020/12/05 08:19:28;;;;;;;26.60;22.20;;;3.30;1.00;;;;;;5037017;28;20241;-75
2020/12/05 08:21:54;;;;;;;27.58;21.98;;;3.30;1.00;;;;;;5025272;28;20269;-74
2020/12/05 08:24:21;;;;;;;24.08;21.17;;;3.30;1.00;;;;;;5022156;28;20218;-74
2020/12/05 08:26:49;;;;;;;26.63;23.17;;;3.40;1.00;;;;;;5024302;28;20270;-75
2020/12/05 08:29:16;;;;;;;27.10;22.13;;;3.50;1.00;;;;;;5024770;28;20249;-76
2020/12/05 08:31:44;;;;;;;25.92;21.67;;;3.50;1.00;;;;;;5030199;28;20228;-75
2020/12/05 08:34:11;;;;;;;28.98;23.25;;;3.60;1.00;;;;;;5030481;28;20284;-76
2020/12/05 08:36:42;;;;;;;26.63;22.35;;;3.70;1.00;;;;;;5031416;28;20317;-74
2020/12/05 08:39:10;;;;;;;28.23;21.17;;;3.80;1.00;;;;;;5026581;28;20332;-74
2020/12/05 08:41:45;;;;;;;28.08;21.20;;;3.90;1.00;;;;;;5042835;28;20643;-74
2020/12/05 08:44:12;;;;;;;28.40;25.40;;;4.00;1.00;;;;;;5028335;28;20316;-75
2020/12/05 08:46:39;;;;;;;26.92;23.95;;;4.20;1.00;;;;;;5027183;28;20235;-74
2020/12/05 08:49:15;;;;;;;28.08;24.05;;;4.40;1.00;;;;;;5027143;28;20226;-73
2020/12/05 08:51:46;;;;;;;23.00;20.52;;;4.40;1.00;;;;;;5030996;28;20229;-73
2020/12/05 08:54:12;;;;;;;26.05;23.35;;;4.40;1.00;;;;;;5029097;28;20232;-77
2020/12/05 08:56:38;;;;;;;27.13;22.10;;;4.30;1.00;;;;;;5031354;28;20250;-74
2020/12/05 08:59:04;;;;;;;29.20;23.20;;;4.30;1.00;;;;;;5025910;28;20313;-72
2020/12/05 09:01:39;;;;;;;29.10;24.52;;;4.30;1.00;;;;;;5028827;28;20241;-73
2020/12/05 09:04:05;;;;;;;30.42;21.35;;;4.20;1.00;;;;;;5029643;28;20229;-73
2020/12/05 09:06:33;;;;;;;28.73;22.48;;;4.20;1.00;;;;;;5029237;28;20241;-73
2020/12/05 09:08:59;;;;;;;25.73;22.13;;;4.20;1.00;;;;;;5027187;28;20261;-74
2020/12/05 09:11:26;;;;;;;25.95;21.90;;;4.30;1.00;;;;;;5027916;28;20235;-74
2020/12/05 09:13:52;;;;;;;34.75;26.20;;;4.30;1.00;;;;;;5029624;28;20309;-75
2020/12/05 09:16:19;;;;;;;25.48;21.00;;;4.50;1.00;;;;;;5028676;28;20222;-73
2020/12/05 09:18:47;;;;;;;25.20;20.17;;;4.70;1.00;;;;;;5032587;28;20264;-74
2020/12/05 09:21:15;;;;;;;22.63;19.80;;;4.90;1.00;;;;;;5033663;28;20575;-75
2020/12/05 09:23:43;;;;;;;24.80;21.98;;;5.00;1.00;;;;;;5033985;28;20233;-74
2020/12/05 09:26:10;;;;;;;25.27;21.70;;;5.20;1.00;;;;;;5035027;28;20226;-73
2020/12/05 09:28:36;;;;;;;22.75;20.45;;;5.60;1.00;;;;;;5036656;28;20233;-73
2020/12/05 09:31:07;;;;;;;22.95;20.25;;;5.90;1.00;;;;;;5037849;28;20233;-74
2020/12/05 09:33:34;;;;;;;22.67;20.08;;;6.10;1.00;;;;;;5037416;28;20222;-73
2020/12/05 09:36:01;;;;;;;20.50;18.30;;;6.10;1.00;;;;;;5034879;28;20284;-73
2020/12/05 09:38:27;;;;;;;20.73;18.60;;;6.30;1.00;;;;;;5035125;28;20249;-74
2020/12/05 09:40:54;;;;;;;23.75;19.30;;;6.40;1.00;;;;;;5017409;28;21007;-73
2020/12/05 09:43:20;;;;;;;18.20;16.02;;;6.50;1.00;;;;;;5034652;28;20308;-73
2020/12/05 09:45:47;;;;;;;21.58;19.25;;;6.70;1.00;;;;;;5042556;28;21885;-73
2020/12/05 09:48:13;;;;;;;24.05;17.50;;;6.90;1.00;;;;;;5044366;28;20280;-74
2020/12/05 09:50:40;;;;;;;19.85;17.45;;;7.30;1.00;;;;;;5038529;28;20229;-74
2020/12/05 09:53:07;;;;;;;20.58;17.58;;;7.80;1.00;;;;;;5042489;28;20265;-74
2020/12/05 09:55:33;;;;;;;18.67;15.63;;;7.70;1.00;;;;;;5040883;28;20214;-73
2020/12/05 09:58:00;;;;;;;17.60;15.70;;;7.70;1.00;;;;;;5037802;28;20309;-74
2020/12/05 10:00:27;;;;;;;19.70;15.25;;;8.00;1.00;;;;;;5047517;28;20234;-74
2020/12/05 10:02:53;;;;;;;16.45;14.82;;;8.30;1.00;;;;;;5047700;28;20226;-73
2020/12/05 10:05:19;;;;;;;15.93;14.10;;;8.30;1.00;;;;;;5047733;28;20245;-73
2020/12/05 10:07:45;;;;;;;19.10;16.58;;;8.20;1.00;;;;;;5039778;28;20300;-74
2020/12/05 10:10:12;;;;;;;20.48;14.02;;;8.30;1.00;;;;;;5040361;28;20285;-74
2020/12/05 10:12:38;;;;;;;16.25;14.55;;;9.00;1.00;;;;;;5029238;28;20327;-76
2020/12/05 10:15:06;;;;;;;14.85;12.93;;;9.80;1.00;;;;;;5014608;28;20281;-73
2020/12/05 10:17:33;;;;;;;15.55;13.85;;;10.20;1.00;;;;;;5030641;28;20226;-72
2020/12/05 10:19:59;;;;;;;17.73;13.88;;;10.40;1.00;;;;;;5023543;28;20328;-74
2020/12/05 10:22:25;;;;;;;14.45;13.02;;;10.30;1.00;;;;;;5033904;28;20309;-74
2020/12/05 10:24:51;;;;;;;15.13;13.52;;;10.20;1.00;;;;;;5028968;28;20222;-72
2020/12/05 10:27:18;;;;;;;16.15;13.23;;;10.00;1.00;;;;;;5006593;28;20314;-74
2020/12/05 10:29:44;;;;;;;16.38;13.02;;;10.20;1.00;;;;;;5023611;28;20234;-74
2020/12/05 10:32:11;;;;;;;14.52;13.02;;;10.20;1.00;;;;;;5032349;28;20292;-73
2020/12/05 10:34:38;;;;;;;18.98;13.60;;;10.10;1.00;;;;;;5026699;28;20230;-73
2020/12/05 10:37:04;;;;;;;12.52;11.20;;;10.30;1.00;;;;;;5010553;28;20305;-74
2020/12/05 10:39:31;;;;;;;13.73;12.00;;;10.90;1.00;;;;;;5033750;28;20226;-73
2020/12/05 10:41:57;;;;;;;13.65;12.25;;;11.30;1.00;;;;;;5008802;28;20361;-74
2020/12/05 10:44:23;;;;;;;14.02;12.48;;;11.60;1.00;;;;;;5013561;28;20231;-74
2020/12/05 10:46:50;;;;;;;13.70;12.32;;;11.60;1.00;;;;;;5024902;28;20318;-73
2020/12/05 10:49:18;;;;;;;13.18;11.65;;;11.60;1.00;;;;;;5030955;28;21020;-74
2020/12/05 10:51:44;;;;;;;16.25;14.15;;;11.70;1.00;;;;;;5026883;28;20306;-74
2020/12/05 10:54:10;;;;;;;13.75;11.80;;;11.90;1.00;;;;;;5026676;28;20233;-73
2020/12/05 10:56:38;;;;;;;14.23;12.77;;;12.10;1.00;;;;;;5022929;28;20221;-73
2020/12/05 10:59:05;;;;;;;14.50;11.80;;;12.10;1.00;;;;;;5034150;28;20218;-75
2020/12/05 11:01:31;;;;;;;14.45;12.73;;;12.10;1.00;;;;;;5026589;28;20273;-75
2020/12/05 11:03:57;;;;;;;15.23;12.70;;;11.70;1.00;;;;;;5027924;28;20744;-73
2020/12/05 11:06:26;;;;;;;14.37;12.87;;;11.50;1.00;;;;;;5013490;28;20226;-73
2020/12/05 11:08:53;;;;;;;14.30;12.80;;;11.80;1.00;;;;;;5029450;28;20431;-72
2020/12/05 11:11:20;;;;;;;14.15;12.38;;;11.80;1.00;;;;;;5036274;28;20291;-73
2020/12/05 11:13:47;;;;;;;15.00;13.50;;;11.60;1.00;;;;;;5026437;28;20310;-74
2020/12/05 11:16:18;;;;;;;14.57;12.73;;;11.40;1.00;;;;;;5007252;28;20232;-74
2020/12/05 11:18:45;;;;;;;14.20;12.70;;;11.00;1.00;;;;;;5026994;28;20231;-75
2020/12/05 11:21:11;;;;;;;14.18;12.57;;;10.60;1.00;;;;;;5022984;28;20238;-75
2020/12/05 11:23:39;;;;;;;15.02;13.43;;;10.30;1.00;;;;;;5024495;28;21379;-74
2020/12/05 11:26:05;;;;;;;15.85;13.70;;;9.80;1.00;;;;;;5026294;28;20223;-74
2020/12/05 11:28:32;;;;;;;16.60;13.15;;;9.60;1.00;;;;;;5004366;28;20245;-73
2020/12/05 11:30:58;;;;;;;14.25;12.57;;;9.50;1.00;;;;;;5025926;28;20269;-72
2020/12/05 11:33:25;;;;;;;16.13;12.90;;;9.20;1.00;;;;;;5027843;28;20281;-73
2020/12/05 11:35:51;;;;;;;13.68;12.13;;;9.10;1.00;;;;;;5027781;28;21162;-75
2020/12/05 11:38:18;;;;;;;14.93;13.27;;;9.00;1.00;;;;;;5026671;28;20226;-75
2020/12/05 11:40:46;;;;;;;16.17;14.07;;;8.90;1.00;;;;;;5021122;28;20288;-74
2020/12/05 11:43:13;;;;;;;16.08;13.10;;;8.90;1.00;;;;;;5027209;28;20309;-73
2020/12/05 11:45:40;;;;;;;15.77;13.82;;;9.00;1.00;;;;;;5028584;28;20278;-74
2020/12/05 11:48:06;;;;;;;21.15;13.85;;;8.90;1.00;;;;;;5028694;28;20233;-74
2020/12/05 11:50:32;;;;;;;14.20;12.68;;;9.00;1.00;;;;;;5032524;28;20226;-74
2020/12/05 11:52:58;;;;;;;12.93;11.52;;;9.20;1.00;;;;;;5037457;28;21015;-72
2020/12/05 11:55:24;;;;;;;16.58;14.13;;;9.20;1.00;;;;;;5032879;28;20233;-70
2020/12/05 11:57:51;;;;;;;16.65;13.02;;;9.30;1.00;;;;;;5024776;28;20248;-72
2020/12/05 12:00:17;;;;;;;15.55;11.93;;;9.20;1.00;;;;;;5024122;28;20230;-74
2020/12/05 12:02:44;;;;;;;14.65;12.98;;;9.00;1.00;;;;;;5028840;28;20229;-72
2020/12/05 12:05:10;;;;;;;18.25;14.20;;;9.10;1.00;;;;;;5034451;28;20250;-73
2020/12/05 12:07:36;;;;;;;17.77;13.98;;;9.20;1.00;;;;;;5013018;28;21000;-75
2020/12/05 12:10:02;;;;;;;17.40;14.77;;;9.40;1.00;;;;;;5030561;28;20294;-73
2020/12/05 12:12:28;;;;;;;21.50;14.55;;;9.40;1.00;;;;;;5028789;28;20228;-72
2020/12/05 12:14:55;;;;;;;16.98;15.18;;;9.40;1.00;;;;;;5013188;28;20241;-73
2020/12/05 12:17:22;;;;;;;17.50;15.07;;;9.30;1.00;;;;;;5025940;28;20222;-72
2020/12/05 12:19:48;;;;;;;18.95;14.07;;;9.00;1.00;;;;;;5028790;28;20777;-73
2020/12/05 12:22:14;;;;;;;16.00;14.07;;;8.70;1.00;;;;;;5025403;28;20767;-73
2020/12/05 12:24:40;;;;;;;18.63;13.32;;;8.50;1.00;;;;;;5045820;28;20226;-73
2020/12/05 12:27:06;;;;;;;17.70;14.93;;;8.30;1.00;;;;;;5039539;28;20323;-73
2020/12/05 12:29:32;;;;;;;18.45;14.82;;;8.30;1.00;;;;;;5046252;28;20324;-73
2020/12/05 12:31:59;;;;;;;16.50;14.00;;;8.30;1.00;;;;;;5037701;28;20321;-75
2020/12/05 12:34:25;;;;;;;18.80;15.63;;;8.20;1.00;;;;;;5040753;28;20286;-73
2020/12/05 12:36:52;;;;;;;17.90;14.90;;;8.20;1.00;;;;;;5025957;28;20236;-72
2020/12/05 12:39:18;;;;;;;18.88;15.25;;;8.10;1.00;;;;;;5020721;28;20341;-71
2020/12/05 12:41:45;;;;;;;16.65;14.90;;;8.10;1.00;;;;;;5025460;28;20344;-74
2020/12/05 12:44:11;;;;;;;18.58;15.45;;;8.00;1.00;;;;;;5029509;28;20269;-75
2020/12/05 12:46:46;;;;;;;22.08;14.98;;;7.90;1.00;;;;;;5033723;28;20256;-73
2020/12/05 12:49:17;;;;;;;16.20;14.00;;;7.90;1.00;;;;;;5028406;28;20233;-72
2020/12/05 12:51:43;;;;;;;17.10;14.63;;;7.80;1.00;;;;;;5033754;28;20275;-74